Time;durP1;ratioP1;P1;durP2;ratioP2;P2;SDS_P1;SDS_P2;PMS_P1;PMS_P2;Temp;Humidity;BMP_temperature;BMP_pressure;BME280_temperature;BME280_humidity;BME280_pressure;Samples;Min_cycle;Max_cycle;Signal;HPM_P1;HPM_P2
2021/09/29 00:00:19;;;;;;;22.63;16.85;;;;;;;16.24;100.00;100149.53;4878540;29;20487;-87
2021/09/29 00:02:46;;;;;;;25.27;17.75;;;;;;;16.21;100.00;100149.78;4881988;29;20526;-86
2021/09/29 00:05:14;;;;;;;27.23;19.42;;;;;;;16.26;100.00;100144.19;4881530;29;20041;-87
2021/09/29 00:07:47;;;;;;;28.42;19.00;;;;;;;16.22;100.00;100146.19;4871863;29;20140;-87
2021/09/29 00:10:24;;;;;;;27.23;20.00;;;;;;;16.34;100.00;100141.78;4863181;29;20489;-87
2021/09/29 00:12:51;;;;;;;22.52;17.15;;;;;;;16.27;100.00;100143.22;4863798;29;20449;-88
2021/09/29 00:15:22;;;;;;;23.33;18.52;;;;;;;16.24;100.00;100132.00;4881869;29;20057;-87
2021/09/29 00:17:49;;;;;;;35.25;19.55;;;;;;;16.28;100.00;100142.25;4881491;29;20049;-88
2021/09/29 00:20:19;;;;;;;26.38;19.98;;;;;;;16.26;100.00;100137.13;4881645;29;20117;-88
2021/09/29 00:22:59;;;;;;;26.67;20.52;;;;;;;16.29;100.00;100136.88;4862748;29;20408;-88
2021/09/29 00:25:36;;;;;;;29.67;20.10;;;;;;;16.24;100.00;100132.00;4863208;29;20053;-88
2021/09/29 00:32:42;;;;;;;27.83;20.85;;;;;;;16.12;100.00;100116.28;4864663;29;20120;-88
2021/09/29 00:36:10;;;;;;;29.20;21.52;;;;;;;16.16;100.00;100118.56;4881598;29;20129;-88
2021/09/29 00:39:43;;;;;;;26.40;19.10;;;;;;;16.06;100.00;100111.47;4878100;29;20057;-85
2021/09/29 00:43:17;;;;;;;26.90;19.25;;;;;;;15.99;100.00;100100.59;4863563;29;20063;-87
2021/09/29 00:46:10;;;;;;;30.30;22.23;;;;;;;16.05;100.00;100102.75;4860981;29;20066;-88
2021/09/29 00:49:02;;;;;;;27.42;19.23;;;;;;;15.97;100.00;100091.97;4862357;29;20057;-87
2021/09/29 00:52:09;;;;;;;43.05;24.48;;;;;;;15.97;100.00;100100.69;4862554;29;20049;-87
2021/09/29 00:54:43;;;;;;;37.45;24.48;;;;;;;15.95;100.00;100099.16;4862131;29;20081;-87
2021/09/29 00:57:11;;;;;;;44.35;26.55;;;;;;;16.01;100.00;100095.22;4844203;29;20046;-88
2021/09/29 00:59:47;;;;;;;37.33;26.20;;;;;;;16.02;100.00;100099.50;4855377;29;20476;-88
2021/09/29 01:02:26;;;;;;;33.75;23.08;;;;;;;16.07;100.00;100098.22;4862499;29;20080;-88
2021/09/29 01:05:38;;;;;;;36.53;22.55;;;;;;;16.09;100.00;100091.06;4862267;29;20049;-88
2021/09/29 01:15:23;;;;;;;39.70;22.15;;;;;;;16.04;100.00;100076.59;4827779;29;20069;-88
2021/09/29 01:17:54;;;;;;;32.33;20.23;;;;;;;15.98;100.00;100073.47;4833350;29;20453;-89
2021/09/29 01:20:39;;;;;;;23.80;17.95;;;;;;;15.97;100.00;100076.19;4844025;29;20046;-89
2021/09/29 01:23:11;;;;;;;23.95;18.60;;;;;;;15.97;100.00;100073.56;4806080;29;20057;-89
2021/09/29 01:26:00;;;;;;;26.05;17.95;;;;;;;15.98;100.00;100070.00;4822439;29;20046;-89
2021/09/29 01:28:35;;;;;;;23.13;17.38;;;;;;;15.94;100.00;100065.94;4825333;29;20051;-89
2021/09/29 01:31:03;;;;;;;19.77;16.10;;;;;;;15.92;100.00;100065.19;4824400;29;20054;-89
2021/09/29 01:33:32;;;;;;;24.92;16.90;;;;;;;15.89;100.00;100058.38;4825032;29;20133;-89
2021/09/29 01:36:02;;;;;;;29.48;17.33;;;;;;;15.92;100.00;100052.03;4825244;29;20104;-90
2021/09/29 01:38:30;;;;;;;20.45;15.50;;;;;;;15.87;100.00;100056.81;4824905;29;20057;-89
2021/09/29 01:40:57;;;;;;;23.52;17.33;;;;;;;15.97;100.00;100052.53;4825318;29;20405;-88
2021/09/29 01:43:24;;;;;;;27.08;17.60;;;;;;;15.94;100.00;100050.16;4825165;29;20049;-88
2021/09/29 01:45:51;;;;;;;23.73;17.45;;;;;;;15.93;100.00;100049.31;4836350;29;20046;-90
2021/09/29 01:48:18;;;;;;;32.33;18.55;;;;;;;15.98;100.00;100046.34;4825107;29;20524;-90
2021/09/29 01:50:47;;;;;;;23.33;16.85;;;;;;;16.01;100.00;100045.25;4824809;29;20046;-86
2021/09/29 01:53:16;;;;;;;18.60;15.40;;;;;;;16.03;100.00;100044.19;4835374;29;20405;-86
2021/09/29 01:55:44;;;;;;;21.33;15.95;;;;;;;16.06;100.00;100041.31;4824783;29;20500;-87
2021/09/29 01:58:12;;;;;;;23.75;17.27;;;;;;;16.03;100.00;100038.09;4824917;29;20054;-87
2021/09/29 02:00:43;;;;;;;24.05;17.63;;;;;;;16.05;100.00;100044.91;4825223;29;20107;-87
2021/09/29 02:03:10;;;;;;;28.73;21.10;;;;;;;16.08;100.00;100039.41;4824776;29;20082;-88
2021/09/29 02:05:37;;;;;;;34.30;18.55;;;;;;;16.13;100.00;100041.69;4825708;29;20485;-88
2021/09/29 02:08:08;;;;;;;27.38;18.83;;;;;;;16.12;100.00;100038.22;4861329;29;20041;-89
2021/09/29 02:10:35;;;;;;;23.60;17.40;;;;;;;16.15;100.00;100038.00;4861626;29;20042;-90
2021/09/29 02:13:05;;;;;;;24.88;16.88;;;;;;;16.26;100.00;100028.47;4861091;29;20093;-89
2021/09/29 02:15:42;;;;;;;21.10;16.70;;;;;;;16.27;100.00;100030.97;4861463;29;20132;-89
2021/09/29 02:18:23;;;;;;;18.60;14.82;;;;;;;16.27;100.00;100038.03;4860850;29;20412;-90
2021/09/29 02:21:16;;;;;;;19.75;16.08;;;;;;;16.26;100.00;100028.47;4856723;29;20438;-90
2021/09/29 02:23:46;;;;;;;23.90;17.70;;;;;;;16.29;100.00;100028.19;4860186;29;20531;-91
2021/09/29 02:26:13;;;;;;;17.55;14.88;;;;;;;16.22;100.00;100026.06;4861174;29;20120;-92
2021/09/29 02:28:40;;;;;;;20.33;16.92;;;;;;;16.16;100.00;100031.78;4861094;29;20450;-91
2021/09/29 02:31:06;;;;;;;23.80;15.77;;;;;;;16.16;100.00;100018.63;4861290;29;20056;-90
2021/09/29 02:33:33;;;;;;;20.30;14.30;;;;;;;16.14;100.00;100020.56;4860737;29;20388;-91
2021/09/29 02:36:02;;;;;;;16.00;13.02;;;;;;;16.17;100.00;100025.56;4860977;29;20076;-91
2021/09/29 02:38:28;;;;;;;14.00;12.18;;;;;;;16.16;100.00;100007.28;4860407;29;20102;-92
2021/09/29 02:40:56;;;;;;;15.77;12.93;;;;;;;16.20;100.00;100019.25;4875335;29;20385;-88
2021/09/29 02:43:23;;;;;;;19.83;12.77;;;;;;;16.23;100.00;100013.72;4860730;29;20445;-92
2021/09/29 02:45:50;;;;;;;17.75;13.57;;;;;;;16.26;100.00;100017.94;4860812;29;20169;-89
2021/09/29 02:48:17;;;;;;;15.80;12.48;;;;;;;16.25;100.00;100014.47;4860597;29;20046;-89
2021/09/29 02:50:43;;;;;;;25.83;14.40;;;;;;;16.28;100.00;100013.38;4860655;29;20442;-88
2021/09/29 02:53:10;;;;;;;15.52;12.60;;;;;;;16.27;100.00;100009.09;4860625;29;20041;-88
2021/09/29 02:55:37;;;;;;;20.38;14.23;;;;;;;16.21;100.00;100011.22;4860576;29;20089;-87
2021/09/29 02:58:04;;;;;;;17.70;13.18;;;;;;;16.24;100.00;100015.41;4860684;29;20469;-88
2021/09/29 03:00:30;;;;;;;16.98;12.90;;;;;;;16.21;100.00;100011.22;4865953;29;20117;-88
2021/09/29 03:02:57;;;;;;;17.13;12.95;;;;;;;16.20;100.00;100008.72;4879526;29;20097;-88
2021/09/29 03:05:26;;;;;;;19.92;12.23;;;;;;;16.22;100.00;100012.91;4893459;29;20037;-88
2021/09/29 03:07:53;;;;;;;17.75;14.43;;;;;;;16.22;100.00;100012.91;4873038;29;20156;-88
2021/09/29 03:10:20;;;;;;;22.15;15.27;;;;;;;16.27;100.00;100012.56;4859185;29;20106;-89
2021/09/29 03:12:47;;;;;;;22.35;15.13;;;;;;;16.23;100.00;100019.84;4860117;29;20042;-88
2021/09/29 03:15:14;;;;;;;22.20;14.55;;;;;;;16.21;100.00;100027.00;4860756;29;20381;-88
2021/09/29 03:17:41;;;;;;;19.88;14.80;;;;;;;16.18;100.00;100032.50;4860522;29;20057;-87
2021/09/29 03:20:08;;;;;;;17.20;14.38;;;;;;;16.27;100.00;100027.50;4860644;29;20512;-88
2021/09/29 03:22:35;;;;;;;23.30;15.75;;;;;;;16.21;100.00;100018.28;4860517;29;20050;-87
2021/09/29 03:25:02;;;;;;;15.80;12.80;;;;;;;16.19;100.00;100023.69;4860424;29;20046;-87
2021/09/29 03:27:29;;;;;;;21.60;12.75;;;;;;;16.16;100.00;100029.16;4860275;29;20114;-87
2021/09/29 03:29:56;;;;;;;19.10;15.20;;;;;;;16.08;100.00;100036.78;4860362;29;20098;-87
2021/09/29 03:32:23;;;;;;;21.02;13.98;;;;;;;16.05;100.00;100037.03;4860487;29;20050;-87
2021/09/29 03:34:49;;;;;;;19.23;15.43;;;;;;;16.10;100.00;100028.78;4859729;29;20077;-87
2021/09/29 03:37:16;;;;;;;20.42;15.45;;;;;;;16.08;100.00;100026.25;4863668;29;20450;-88
2021/09/29 03:39:43;;;;;;;26.42;16.52;;;;;;;16.07;100.00;100021.13;4869637;29;20048;-88
2021/09/29 03:42:09;;;;;;;22.17;16.27;;;;;;;16.05;100.00;100021.25;4882853;29;20034;-87
2021/09/29 03:44:36;;;;;;;27.05;16.02;;;;;;;16.12;100.00;100019.81;4865813;29;20097;-87
2021/09/29 03:47:03;;;;;;;20.25;15.27;;;;;;;16.10;100.00;100008.59;4864474;29;20544;-87
2021/09/29 03:49:30;;;;;;;22.05;15.55;;;;;;;16.18;100.00;100011.47;4864046;29;20104;-83
2021/09/29 03:51:57;;;;;;;26.20;16.35;;;;;;;16.21;100.00;100027.00;4863967;29;20041;-85
2021/09/29 03:54:23;;;;;;;23.65;17.60;;;;;;;16.14;100.00;100024.94;4863879;29;20049;-86
2021/09/29 03:56:50;;;;;;;23.50;14.75;;;;;;;16.09;100.00;100020.06;4863450;29;20049;-85
2021/09/29 03:59:17;;;;;;;19.80;14.18;;;;;;;16.08;100.00;100018.38;4863668;29;20101;-85
2021/09/29 04:01:46;;;;;;;22.75;15.00;;;;;;;16.06;100.00;100022.91;4863882;29;20115;-88
2021/09/29 04:04:13;;;;;;;17.00;12.18;;;;;;;16.14;100.00;100024.94;4864376;29;20533;-90
2021/09/29 04:06:39;;;;;;;20.23;12.70;;;;;;;16.16;100.00;100037.03;4863162;29;20050;-89
2021/09/29 04:09:06;;;;;;;17.05;13.80;;;;;;;16.22;100.00;100041.84;4863348;29;20050;-88
2021/09/29 04:11:33;;;;;;;19.65;13.80;;;;;;;16.23;100.00;100030.34;4863160;29;20098;-90
2021/09/29 04:14:06;;;;;;;18.23;13.63;;;;;;;16.23;100.00;100030.34;4863357;29;20052;-89
2021/09/29 04:19:45;;;;;;;19.52;12.57;;;;;;;16.15;100.00;100035.38;4863515;29;20049;-88
2021/09/29 04:27:20;;;;;;;26.15;19.52;;;;;;;16.07;100.00;100039.53;4864083;29;20097;-89
2021/09/29 04:30:30;;;;;;;29.05;22.23;;;;;;;16.04;100.00;100040.63;4844722;29;20135;-92
2021/09/29 04:33:58;;;;;;;30.00;21.30;;;;;;;16.05;100.00;100037.03;4866392;29;20505;-96
2021/09/29 04:36:35;;;;;;;30.80;21.83;;;;;;;16.01;100.00;100038.22;4861188;29;20053;-92
2021/09/29 04:39:15;;;;;;;24.63;16.92;;;;;;;15.91;100.00;100035.44;4862136;29;20121;-96
2021/09/29 04:42:17;;;;;;;22.05;15.95;;;;;;;15.85;100.00;100040.31;4874089;29;20056;-96
2021/09/29 04:45:38;;;;;;;20.67;13.48;;;;;;;15.85;100.00;100037.69;4870293;29;20186;-95
2021/09/29 04:48:31;;;;;;;25.65;14.57;;;;;;;15.89;100.00;100047.03;4872375;29;20037;-91
2021/09/29 04:51:19;;;;;;;19.70;12.32;;;;;;;15.92;100.00;100052.03;4861959;29;20108;-96
2021/09/29 04:55:05;;;;;;;17.05;11.52;;;;;;;15.84;100.00;100065.78;4867889;29;20404;-96
2021/09/29 04:57:25;;;;;;;17.05;11.98;;;;;;;15.71;100.00;100063.22;4855734;29;20065;-93
2021/09/29 04:59:59;;;;;;;16.02;12.80;;;;;;;15.68;100.00;100066.06;4870340;29;20125;-93
2021/09/29 05:02:50;;;;;;;18.63;13.88;;;;;;;15.72;100.00;100061.44;4861632;29;20046;-96
2021/09/29 05:06:19;;;;;;;18.30;13.50;;;;;;;15.84;100.00;100059.69;4864203;29;20432;-94
2021/09/29 05:08:56;;;;;;;15.93;13.73;;;;;;;15.83;100.00;100056.22;4861128;29;20051;-96
2021/09/29 05:11:38;;;;;;;20.90;14.77;;;;;;;15.88;100.00;100058.50;4858425;29;20046;-95
2021/09/29 05:14:20;;;;;;;18.52;14.40;;;;;;;15.94;100.00;100071.19;4864263;29;20049;-94
2021/09/29 05:16:47;;;;;;;23.65;16.00;;;;;;;15.94;100.00;100068.56;4864805;29;20504;-95
2021/09/29 05:19:17;;;;;;;18.30;14.52;;;;;;;15.93;100.00;100066.88;4864395;29;20050;-96
2021/09/29 05:21:53;;;;;;;19.55;14.60;;;;;;;15.83;100.00;100073.78;4867084;29;20124;-96
2021/09/29 05:24:23;;;;;;;18.55;14.55;;;;;;;15.76;100.00;100076.00;4869660;29;20059;-95
2021/09/29 05:27:04;;;;;;;22.98;17.55;;;;;;;15.69;100.00;100088.75;4861694;29;20098;-93
2021/09/29 05:30:01;;;;;;;20.13;15.68;;;;;;;15.20;100.00;100108.06;4854900;29;20405;-91
2021/09/29 05:32:32;;;;;;;27.17;17.08;;;;;;;15.37;100.00;100103.38;4858374;29;20046;-91
2021/09/29 05:34:59;;;;;;;33.08;21.88;;;;;;;15.38;100.00;100110.31;4859204;29;20057;-92
2021/09/29 05:37:26;;;;;;;41.92;25.70;;;;;;;15.46;100.00;100111.44;4861358;29;20079;-91
2021/09/29 05:39:53;;;;;;;43.50;27.60;;;;;;;15.66;100.00;100112.66;4856649;29;20051;-91
2021/09/29 05:42:21;;;;;;;39.67;29.23;;;;;;;15.82;100.00;100114.13;4860676;29;20061;-91
2021/09/29 05:44:49;;;;;;;50.47;31.75;;;;;;;15.95;100.00;100117.53;4855312;29;20133;-91
2021/09/29 05:47:16;;;;;;;64.30;32.15;;;;;;;16.07;100.00;100121.88;4856299;29;20561;-92
2021/09/29 05:49:43;;;;;;;44.78;29.73;;;;;;;16.19;100.00;100118.34;4859806;29;20457;-92
2021/09/29 05:52:11;;;;;;;44.92;28.42;;;;;;;16.24;100.00;100121.47;4857770;29;20091;-90
2021/09/29 05:54:41;;;;;;;46.47;29.13;;;;;;;16.32;100.00;100123.50;4853626;29;20064;-91
2021/09/29 05:57:09;;;;;;;36.20;27.02;;;;;;;16.45;100.00;100124.25;4859567;29;20159;-90
2021/09/29 05:59:42;;;;;;;40.70;27.10;;;;;;;16.65;100.00;100129.78;4856629;29;20033;-92
2021/09/29 06:02:11;;;;;;;39.55;25.50;;;;;;;16.89;100.00;100129.72;4854633;29;20102;-90
2021/09/29 06:04:41;;;;;;;41.28;27.10;;;;;;;17.00;100.00;100125.28;4858024;29;20046;-89
2021/09/29 06:07:11;;;;;;;37.22;24.50;;;;;;;17.24;100.00;100133.03;4856715;29;20045;-89
2021/09/29 06:09:40;;;;;;;39.92;26.80;;;;;;;17.34;100.00;100137.56;4856174;29;20046;-91
2021/09/29 06:12:08;;;;;;;37.08;25.77;;;;;;;17.47;100.00;100132.97;4860132;29;20508;-90
2021/09/29 06:14:50;;;;;;;40.58;26.63;;;;;;;17.54;100.00;100140.28;4863509;29;20112;-92
2021/09/29 06:17:38;;;;;;;48.83;29.38;;;;;;;17.49;100.00;100141.63;4864240;29;20041;-91
2021/09/29 06:20:06;;;;;;;44.25;29.58;;;;;;;17.74;100.00;100146.63;4857593;29;20094;-90
2021/09/29 06:22:34;;;;;;;50.28;32.80;;;;;;;17.91;100.00;100144.41;4858289;29;20041;-89
2021/09/29 06:25:02;;;;;;;51.42;31.45;;;;;;;17.98;100.00;100146.38;4866950;29;20412;-89
2021/09/29 06:27:28;;;;;;;63.45;32.90;;;;;;;18.09;100.00;100153.41;4866668;29;20048;-91
2021/09/29 06:29:59;;;;;;;54.35;34.30;;;;;;;18.18;100.00;100144.75;4861652;29;20065;-92
2021/09/29 06:32:26;;;;;;;60.10;33.65;;;;;;;18.21;100.00;100152.38;4865393;29;20069;-93
2021/09/29 06:34:53;;;;;;;56.70;34.03;;;;;;;18.39;100.00;100152.66;4863885;29;20061;-92
2021/09/29 06:37:20;;;;;;;60.55;36.55;;;;;;;18.73;100.00;100145.38;4855185;29;20048;-91
2021/09/29 06:39:47;;;;;;;69.40;36.55;;;;;;;18.77;100.00;100156.53;4857685;29;20553;-90
2021/09/29 06:42:13;;;;;;;62.75;37.15;;;;;;;18.72;100.00;100154.28;4858733;29;20046;-88
2021/09/29 06:44:40;;;;;;;63.63;36.30;;;;;;;18.86;100.00;100152.28;4861541;29;20111;-88
2021/09/29 06:47:07;;;;;;;63.05;37.50;;;;;;;18.83;100.00;100150.72;4856086;29;20094;-81
2021/09/29 06:49:35;;;;;;;65.88;41.58;;;;;;;19.16;100.00;100146.94;4860206;29;20080;-79
2021/09/29 06:52:02;;;;;;;65.20;38.67;;;;;;;19.09;100.00;100146.66;4860739;29;20081;-81
2021/09/29 06:54:28;;;;;;;71.47;42.50;;;;;;;19.15;100.00;100150.56;4855702;29;20057;-81
2021/09/29 06:56:55;;;;;;;75.40;40.67;;;;;;;19.18;100.00;100137.09;4858070;29;20041;-82
2021/09/29 06:59:22;;;;;;;68.07;44.35;;;;;;;19.29;100.00;100154.66;4852799;29;20045;-82
2021/09/29 07:01:49;;;;;;;72.00;43.13;;;;;;;19.22;100.00;100154.34;4849145;29;20089;-81
2021/09/29 07:04:16;;;;;;;67.72;41.70;;;;;;;19.48;100.00;100143.28;4846545;29;20489;-79
2021/09/29 07:06:42;;;;;;;75.55;43.03;;;;;;;19.43;100.00;100150.78;4864586;29;20109;-81
2021/09/29 07:09:09;;;;;;;66.97;43.00;;;;;;;19.50;100.00;100144.00;4860842;29;20125;-80
2021/09/29 07:11:36;;;;;;;83.63;51.28;;;;;;;19.54;100.00;100140.09;4866610;29;20074;-78
2021/09/29 07:14:03;;;;;;;71.55;44.35;;;;;;;19.69;100.00;100143.22;4859237;29;20049;-79
2021/09/29 07:16:30;;;;;;;80.25;50.58;;;;;;;19.97;99.11;100146.84;4864371;29;20592;-79
2021/09/29 07:19:01;;;;;;;67.53;46.45;;;;;;;19.45;100.00;100147.06;4862357;29;20053;-81
2021/09/29 07:21:29;;;;;;;71.72;48.97;;;;;;;19.56;100.00;100149.56;4861645;29;20049;-82
2021/09/29 07:23:56;;;;;;;69.45;45.97;;;;;;;19.80;99.59;100151.00;4859240;29;20101;-78
2021/09/29 07:26:23;;;;;;;82.55;50.72;;;;;;;20.02;98.11;100160.47;4859636;29;20488;-84
2021/09/29 07:28:50;;;;;;;74.18;45.92;;;;;;;19.95;97.52;100152.28;4859625;29;20110;-80
2021/09/29 07:31:18;;;;;;;81.00;52.50;;;;;;;20.29;95.93;100152.66;4859259;29;20511;-83
2021/09/29 07:33:45;;;;;;;68.03;44.22;;;;;;;20.09;96.83;100154.50;4863850;29;20054;-81
2021/09/29 07:36:12;;;;;;;70.10;49.17;;;;;;;20.04;96.12;100158.56;4857281;29;20045;-80
2021/09/29 07:38:42;;;;;;;72.70;44.50;;;;;;;20.10;96.46;100147.41;4849782;29;20045;-81
2021/09/29 07:41:09;;;;;;;78.93;51.03;;;;;;;20.41;93.76;100153.38;4852986;29;20057;-83
2021/09/29 07:43:36;;;;;;;70.13;48.92;;;;;;;20.47;93.75;100152.00;4874235;29;20044;-81
2021/09/29 07:46:03;;;;;;;69.80;44.33;;;;;;;20.42;93.08;100153.22;4866889;29;20195;-81
2021/09/29 07:48:30;;;;;;;64.70;45.47;;;;;;;20.36;93.11;100153.78;4866277;29;20092;-84
2021/09/29 07:50:57;;;;;;;71.95;47.38;;;;;;;20.59;91.79;100150.84;4867485;29;20100;-79
2021/09/29 07:53:25;;;;;;;67.80;43.40;;;;;;;20.69;91.51;100146.34;4872527;29;20041;-84
2021/09/29 07:55:54;;;;;;;67.95;45.72;;;;;;;20.46;93.02;100158.25;4866449;29;20050;-85
2021/09/29 07:58:22;;;;;;;67.97;45.78;;;;;;;20.68;92.19;100152.63;4867504;29;20049;-86
2021/09/29 08:00:49;;;;;;;65.03;44.38;;;;;;;20.53;91.99;100154.91;4870167;29;20101;-87
2021/09/29 08:03:16;;;;;;;67.63;46.25;;;;;;;20.55;91.17;100154.75;4870438;29;20500;-85
2021/09/29 08:05:43;;;;;;;69.63;45.22;;;;;;;20.57;90.96;100150.16;4865808;29;20041;-86
2021/09/29 08:08:10;;;;;;;67.30;44.50;;;;;;;21.16;87.73;100144.50;4862086;29;20082;-86
2021/09/29 08:10:38;;;;;;;67.70;46.75;;;;;;;20.70;90.45;100145.38;4853005;29;20519;-87
2021/09/29 08:13:04;;;;;;;67.88;45.17;;;;;;;20.77;89.71;100150.91;4855146;29;20038;-83
2021/09/29 08:15:31;;;;;;;61.33;44.58;;;;;;;21.33;86.24;100148.19;4875370;29;20037;-83
2021/09/29 08:17:58;;;;;;;66.70;45.15;;;;;;;21.69;83.43;100148.25;4864820;29;20105;-81
2021/09/29 08:20:28;;;;;;;69.15;44.80;;;;;;;21.66;84.74;100159.16;4857605;29;20042;-86
2021/09/29 08:26:22;;;;;;;64.28;42.17;;;;;;;20.85;88.07;100156.34;4846108;29;20054;-85
2021/09/29 08:29:21;;;;;;;61.33;37.30;;;;;;;20.99;86.92;100163.00;4857030;29;20135;-87
2021/09/29 08:34:48;;;;;;;60.08;39.78;;;;;;;21.37;84.82;100154.88;4855941;29;20041;-84
2021/09/29 08:37:25;;;;;;;58.90;40.53;;;;;;;21.57;83.95;100155.59;4856909;29;20038;-85
2021/09/29 08:40:00;;;;;;;59.28;39.17;;;;;;;21.76;83.07;100144.00;4856141;29;20101;-87
2021/09/29 08:45:18;;;;;;;64.65;45.60;;;;;;;21.63;83.26;100151.53;4862091;29;20065;-82
2021/09/29 08:47:58;;;;;;;58.30;42.20;;;;;;;21.52;83.30;100157.00;4869383;29;20045;-82
2021/09/29 08:53:31;;;;;;;65.38;43.90;;;;;;;22.10;81.19;100143.31;4865976;29;20115;-83
2021/09/29 09:15:52;;;;;;;65.40;46.13;;;;;;;22.53;77.92;100154.94;4860681;29;20042;-83
2021/09/29 09:18:21;;;;;;;63.00;41.47;;;;;;;22.51;77.50;100148.97;4860396;29;20655;-84
2021/09/29 09:21:06;;;;;;;64.95;44.88;;;;;;;22.10;79.55;100144.16;4860210;29;20038;-96
2021/09/29 09:23:40;;;;;;;63.47;41.40;;;;;;;22.01;80.46;100152.22;4872411;29;20049;-87
2021/09/29 09:26:27;;;;;;;60.60;38.95;;;;;;;22.10;80.27;100145.97;4857151;29;20556;-91
2021/09/29 09:29:23;;;;;;;57.25;40.10;;;;;;;22.52;77.91;100142.66;4861310;29;20049;-89
2021/09/29 09:31:49;;;;;;;57.85;42.28;;;;;;;22.37;78.18;100145.91;4858257;29;20049;-83
2021/09/29 09:34:20;;;;;;;62.00;41.78;;;;;;;22.54;78.20;100146.00;4869062;29;20044;-89
2021/09/29 09:36:50;;;;;;;63.42;44.05;;;;;;;23.17;75.48;100146.53;4869498;29;20394;-89
2021/09/29 09:39:22;;;;;;;56.50;37.70;;;;;;;22.19;79.25;100147.75;4870665;29;20484;-94
2021/09/29 09:41:51;;;;;;;57.78;40.05;;;;;;;22.10;80.77;100141.53;4866988;29;20416;-88
2021/09/29 09:44:24;;;;;;;57.05;39.13;;;;;;;22.38;78.65;100150.22;4858905;29;20053;-93
2021/09/29 09:47:12;;;;;;;56.42;41.50;;;;;;;22.29;78.57;100151.13;4863472;29;20046;-92
2021/09/29 09:49:51;;;;;;;55.97;39.67;;;;;;;22.70;77.33;100154.09;4873046;29;20453;-89
2021/09/29 09:52:53;;;;;;;59.67;40.72;;;;;;;22.57;77.51;100145.69;4872094;29;20045;-90
2021/09/29 09:55:23;;;;;;;56.13;42.85;;;;;;;22.79;77.05;100145.16;4881520;29;20496;-94
2021/09/29 09:57:55;;;;;;;60.75;41.40;;;;;;;22.72;78.23;100146.78;4863674;29;20054;-91
2021/09/29 10:00:27;;;;;;;49.50;39.28;;;;;;;23.27;74.88;100141.91;4869235;29;20053;-92
2021/09/29 10:02:55;;;;;;;63.35;46.15;;;;;;;23.19;74.49;100144.53;4870903;29;20081;-88
2021/09/29 10:05:26;;;;;;;65.28;43.97;;;;;;;22.65;77.50;100141.25;4875054;29;20045;-92
2021/09/29 10:07:53;;;;;;;54.90;42.20;;;;;;;22.72;76.86;100149.44;4869809;29;20102;-94
2021/09/29 10:27:09;;;;;;;60.75;42.45;;;;;;;22.70;77.59;100117.72;4857818;29;20050;-90
2021/09/29 10:29:39;;;;;;;57.08;45.65;;;;;;;23.23;76.03;100119.31;4863077;29;20417;-88
2021/09/29 10:32:26;;;;;;;55.25;41.63;;;;;;;22.98;76.86;100125.53;4858843;29;20050;-88
2021/09/29 10:35:32;;;;;;;61.03;38.50;;;;;;;22.62;77.47;100119.47;4857161;29;20046;-91
2021/09/29 10:40:39;;;;;;;57.40;39.53;;;;;;;22.42;79.32;100125.00;4858351;29;20050;-90
2021/09/29 10:49:08;;;;;;;65.13;45.45;;;;;;;23.60;72.46;100110.09;4859160;29;20408;-87
2021/09/29 11:28:53;;;;;;;58.88;41.53;;;;;;;23.86;69.97;100091.31;4876200;29;20488;-89
2021/09/29 11:31:25;;;;;;;50.17;39.75;;;;;;;24.11;69.36;100088.66;4880479;29;20557;-89
2021/09/29 11:34:08;;;;;;;54.75;38.92;;;;;;;23.73;70.61;100096.31;4866168;29;20089;-89
2021/09/29 12:10:27;;;;;;;53.30;41.92;;;;;;;24.35;67.12;100064.69;4865103;29;20041;-86
2021/09/29 12:12:55;;;;;;;51.42;39.35;;;;;;;24.03;66.65;100066.38;4860655;29;20045;-86
2021/09/29 12:15:23;;;;;;;51.70;39.80;;;;;;;24.06;66.51;100062.53;4862684;29;20105;-87
2021/09/29 12:17:50;;;;;;;52.38;38.08;;;;;;;23.72;67.56;100054.75;4862473;29;20382;-90
2021/09/29 12:20:27;;;;;;;53.58;41.65;;;;;;;23.77;67.28;100063.06;4865232;29;20042;-92
2021/09/29 12:23:00;;;;;;;51.58;41.95;;;;;;;24.42;65.22;100057.69;4864963;29;20049;-93
2021/09/29 12:25:43;;;;;;;55.40;41.47;;;;;;;24.14;66.37;100064.38;4862611;29;20106;-89
2021/09/29 12:30:49;;;;;;;52.15;41.05;;;;;;;24.00;66.31;100053.38;4863454;29;20037;-91
2021/09/29 12:36:33;;;;;;;54.40;39.13;;;;;;;24.47;64.44;100050.00;4841523;29;20491;-86
2021/09/29 12:39:01;;;;;;;47.40;36.97;;;;;;;24.44;63.50;100039.69;4860692;29;20049;-85
2021/09/29 12:41:31;;;;;;;52.15;34.92;;;;;;;24.28;63.50;100037.03;4866381;29;20041;-88
2021/09/29 12:44:06;;;;;;;46.65;33.30;;;;;;;24.17;64.12;100032.06;4858259;29;20630;-85
2021/09/29 12:46:34;;;;;;;46.55;32.90;;;;;;;24.35;62.93;100027.41;4859501;29;20413;-89
2021/09/29 12:49:09;;;;;;;48.50;38.00;;;;;;;24.76;61.83;100033.38;4848367;29;20073;-83
2021/09/29 12:51:51;;;;;;;52.28;36.92;;;;;;;24.76;62.57;100029.91;4859038;29;20046;-82
2021/09/29 12:54:21;;;;;;;51.00;39.30;;;;;;;24.29;63.33;100038.72;4860278;29;20070;-85
2021/09/29 12:56:48;;;;;;;45.63;32.38;;;;;;;24.49;63.08;100040.00;4857716;29;20049;-86
2021/09/29 12:59:14;;;;;;;48.80;37.97;;;;;;;24.65;62.71;100032.94;4861565;29;20065;-90
2021/09/29 13:01:41;;;;;;;45.25;35.78;;;;;;;24.92;61.33;100032.47;4858475;29;20077;-88
2021/09/29 13:04:08;;;;;;;51.38;38.10;;;;;;;24.83;62.21;100028.22;4858549;29;20110;-86
2021/09/29 13:06:35;;;;;;;44.40;33.50;;;;;;;24.78;61.60;100031.41;4859459;29;20361;-87
2021/09/29 13:09:02;;;;;;;43.13;33.28;;;;;;;24.73;60.92;100030.25;4856532;29;20114;-93
2021/09/29 13:11:30;;;;;;;41.80;33.97;;;;;;;24.87;60.79;100023.34;4848784;29;20110;-92
2021/09/29 13:13:57;;;;;;;39.35;30.05;;;;;;;25.01;60.61;100030.63;4854723;29;20049;-86
2021/09/29 13:16:26;;;;;;;42.08;31.10;;;;;;;24.56;61.87;100037.50;4859820;29;20108;-87
2021/09/29 13:37:00;;;;;;;48.22;28.80;;;;;;;24.55;61.86;100035.81;4858281;29;20499;-85
2021/09/29 13:39:27;;;;;;;41.80;31.52;;;;;;;24.77;60.99;100024.41;4859514;29;20042;-87
2021/09/29 13:41:54;;;;;;;38.83;28.25;;;;;;;24.76;61.01;100032.56;4863403;29;20070;-88
2021/09/29 13:44:23;;;;;;;34.58;28.58;;;;;;;24.58;61.40;100037.31;4855526;29;20045;-85
2021/09/29 13:46:50;;;;;;;40.30;29.33;;;;;;;24.75;60.71;100037.06;4848055;29;20054;-88
2021/09/29 13:49:17;;;;;;;37.60;30.75;;;;;;;24.67;60.69;100033.63;4856685;29;20037;-90
2021/09/29 13:51:45;;;;;;;41.05;30.15;;;;;;;24.95;60.37;100036.66;4861359;29;20073;-91
2021/09/29 13:54:18;;;;;;;39.17;29.08;;;;;;;24.78;61.26;100028.75;4863339;29;20049;-88
2021/09/29 13:57:11;;;;;;;40.10;31.00;;;;;;;24.74;60.36;100024.75;4878462;29;20053;-86
2021/09/29 14:29:29;;;;;;;31.15;27.13;;;;;;;24.70;60.84;100010.09;4867975;29;20101;-82
2021/09/29 14:34:22;;;;;;;36.60;26.42;;;;;;;24.87;60.30;100010.84;4859508;29;20129;-85
2021/09/29 14:36:49;;;;;;;35.80;26.35;;;;;;;24.67;60.61;100013.13;4860541;29;20053;-92
2021/09/29 14:39:16;;;;;;;32.92;27.40;;;;;;;24.43;60.63;100007.88;4871944;29;20106;-90
2021/09/29 14:41:43;;;;;;;35.00;28.55;;;;;;;24.62;60.28;100012.81;4860856;29;20413;-89
2021/09/29 14:44:11;;;;;;;36.38;27.80;;;;;;;24.64;60.10;100002.81;4862475;29;20386;-95
2021/09/29 14:46:38;;;;;;;35.22;27.70;;;;;;;24.53;60.12;99996.03;4872066;29;20112;-94
2021/09/29 14:49:05;;;;;;;33.03;28.08;;;;;;;24.50;60.38;100011.50;4863783;29;20045;-91
2021/09/29 14:51:31;;;;;;;31.48;28.10;;;;;;;24.71;59.98;100008.25;4862691;29;20457;-92
2021/09/29 14:53:59;;;;;;;30.88;25.17;;;;;;;24.54;60.71;100008.34;4862267;29;20042;-92